Time;durP1;ratioP1;P1;durP2;ratioP2;P2;SDS_P1;SDS_P2;PMS_P1;PMS_P2;Temp;Humidity;BMP_temperature;BMP_pressure;BME280_temperature;BME280_humidity;BME280_pressure;Samples;Min_cycle;Max_cycle;Signal;HPM_P1;HPM_P2
2023/04/29 00:01:58;;;;;;;;;;;;;;;19.29;nan;101094.16;5050994;28;19916;-89
2023/04/29 00:04:27;;;;;;;;;;;;;;;19.30;nan;101094.97;5031450;28;20012;-88
2023/04/29 00:06:52;;;;;;;;;;;;;;;19.29;nan;101090.66;5035400;28;19944;-87
2023/04/29 00:09:18;;;;;;;;;;;;;;;19.29;nan;101093.34;5052309;28;20374;-88
2023/04/29 00:11:43;;;;;;;;;;;;;;;19.28;nan;101095.28;5050312;28;19917;-88
2023/04/29 00:14:08;;;;;;;;;;;;;;;19.27;nan;101095.56;5050036;28;19924;-88
2023/04/29 00:16:34;;;;;;;;;;;;;;;19.24;nan;101094.25;5056786;28;19928;-88
2023/04/29 00:18:59;;;;;;;;;;;;;;;19.22;nan;101084.81;5051522;28;19917;-88
2023/04/29 00:21:26;;;;;;;;;;;;;;;19.20;nan;101081.53;5053337;28;19921;-89
2023/04/29 00:23:51;;;;;;;;;;;;;;;19.18;nan;101073.69;5033862;28;19917;-88
2023/04/29 00:26:17;;;;;;;;;;;;;;;19.19;nan;101069.88;5046848;28;19920;-88
2023/04/29 00:28:42;;;;;;;;;;;;;;;19.18;nan;101067.47;5032591;28;19975;-88
2023/04/29 00:31:07;;;;;;;;;;;;;;;19.15;nan;101068.06;5048857;28;20003;-88
2023/04/29 00:33:33;;;;;;;;;;;;;;;19.12;nan;101071.38;5051116;28;19917;-88
2023/04/29 00:35:58;;;;;;;;;;;;;;;19.12;nan;101063.22;5051350;28;19920;-89
2023/04/29 00:38:23;;;;;;;;;;;;;;;19.12;nan;101055.09;5047227;28;19924;-89
2023/04/29 00:40:49;;;;;;;;;;;;;;;19.06;nan;101054.38;5053609;28;19916;-89
2023/04/29 00:43:14;;;;;;;;;;;;;;;19.04;nan;101050.34;5035409;28;19978;-88
2023/04/29 00:45:40;;;;;;;;;;;;;;;19.01;nan;101052.53;5050512;28;20349;-89
2023/04/29 00:48:05;;;;;;;;;;;;;;;18.99;nan;101048.50;5050149;28;20401;-88
2023/04/29 00:50:31;;;;;;;;;;;;;;;18.98;nan;101047.69;5052462;28;19952;-88
2023/04/29 00:52:56;;;;;;;;;;;;;;;19.00;nan;101047.41;5052518;28;19921;-88
2023/04/29 00:55:22;;;;;;;;;;;;;;;18.99;nan;101043.88;5035535;28;19931;-89
2023/04/29 00:57:51;;;;;;;;;;;;;;;19.00;nan;101039.25;5051338;28;20284;-89
2023/04/29 01:00:17;;;;;;;;;;;;;;;18.94;nan;101038.53;5035656;28;19955;-88
2023/04/29 01:02:43;;;;;;;;;;;;;;;18.91;nan;101038.31;5047470;28;20021;-89
2023/04/29 01:05:08;;;;;;;;;;;;;;;18.86;nan;101050.09;5056949;28;19971;-89
2023/04/29 01:07:41;;;;;;;;;;;;;;;18.85;nan;101045.75;5033319;28;19917;-88
2023/04/29 01:10:12;;;;;;;;;;;;;;;18.83;nan;101039.78;5046390;28;19920;-88
2023/04/29 01:12:58;;;;;;;;;;;;;;;18.83;nan;101039.00;5049729;28;20609;-87
2023/04/29 01:15:33;;;;;;;;;;;;;;;18.80;nan;101048.53;5051035;28;20429;-88
2023/04/29 01:18:08;;;;;;;;;;;;;;;18.78;nan;101042.59;5051320;28;19952;-89
2023/04/29 01:20:34;;;;;;;;;;;;;;;18.78;nan;101045.31;5051619;28;19917;-89
2023/04/29 01:23:00;;;;;;;;;;;;;;;18.79;nan;101035.25;5053194;28;19961;-88
2023/04/29 01:25:25;;;;;;;;;;;;;;;18.80;nan;101034.97;5058448;28;19921;-88
2023/04/29 01:28:03;;;;;;;;;;;;;;;18.81;nan;101039.28;5054160;28;19989;-89
2023/04/29 01:30:32;;;;;;;;;;;;;;;18.80;nan;101036.88;5055896;28;20003;-89
2023/04/29 01:33:02;;;;;;;;;;;;;;;18.78;nan;101041.78;5052594;28;21718;-88
2023/04/29 01:35:27;;;;;;;;;;;;;;;18.76;nan;101030.44;5054848;28;19917;-89
2023/04/29 01:37:59;;;;;;;;;;;;;;;18.78;nan;101031.75;5050961;28;19924;-89
2023/04/29 01:40:26;;;;;;;;;;;;;;;18.78;nan;101033.66;5049343;28;19927;-89
2023/04/29 01:42:51;;;;;;;;;;;;;;;18.79;nan;101035.25;5051433;28;19917;-89
2023/04/29 01:45:17;;;;;;;;;;;;;;;18.75;nan;101034.25;5048312;28;19927;-89
2023/04/29 01:47:43;;;;;;;;;;;;;;;18.73;nan;101031.03;5050139;28;22141;-89
2023/04/29 01:50:09;;;;;;;;;;;;;;;18.71;nan;101029.41;5050173;28;20003;-89
2023/04/29 01:52:35;;;;;;;;;;;;;;;18.69;nan;101028.09;5033340;28;20015;-89
2023/04/29 01:55:01;;;;;;;;;;;;;;;18.65;nan;101024.34;5049381;28;19916;-88
2023/04/29 01:57:26;;;;;;;;;;;;;;;18.64;nan;101020.00;5052005;28;19924;-88
2023/04/29 01:59:51;;;;;;;;;;;;;;;18.66;nan;101028.66;5030178;28;20373;-89
2023/04/29 02:02:20;;;;;;;;;;;;;;;18.68;nan;101032.72;5048086;28;20340;-89
2023/04/29 02:04:45;;;;;;;;;;;;;;;18.70;nan;101029.72;5054615;28;20467;-89
2023/04/29 02:07:10;;;;;;;;;;;;;;;18.71;nan;101028.59;5045861;28;19924;-89
2023/04/29 02:09:36;;;;;;;;;;;;;;;18.71;nan;101026.69;5053067;28;19966;-88
2023/04/29 02:12:03;;;;;;;;;;;;;;;18.70;nan;101019.66;5048170;28;20015;-87
2023/04/29 02:14:29;;;;;;;;;;;;;;;18.65;nan;101017.00;5049076;28;20508;-89
2023/04/29 02:16:54;;;;;;;;;;;;;;;18.61;nan;101021.38;5050526;28;19944;-89
2023/04/29 02:19:19;;;;;;;;;;;;;;;18.60;nan;101014.34;5054911;28;19962;-89
2023/04/29 02:21:45;;;;;;;;;;;;;;;18.60;nan;101008.09;5051404;28;19966;-89
2023/04/29 02:24:10;;;;;;;;;;;;;;;18.55;nan;101006.28;5046978;28;19917;-87
2023/04/29 02:26:37;;;;;;;;;;;;;;;18.55;nan;101003.56;5053946;28;19921;-88
2023/04/29 02:29:02;;;;;;;;;;;;;;;18.53;nan;101003.06;5053706;28;20037;-88
2023/04/29 02:31:28;;;;;;;;;;;;;;;18.53;nan;101002.25;5049929;28;20055;-89
2023/04/29 02:33:53;;;;;;;;;;;;;;;18.53;nan;101000.34;5050971;28;19939;-88
2023/04/29 02:36:19;;;;;;;;;;;;;;;18.51;nan;100993.63;5056792;28;19913;-89
2023/04/29 02:38:44;;;;;;;;;;;;;;;18.47;nan;101000.72;5047652;28;19923;-88
2023/04/29 02:41:09;;;;;;;;;;;;;;;18.42;nan;100991.56;5049846;28;19988;-88
2023/04/29 02:43:35;;;;;;;;;;;;;;;18.38;nan;100995.16;5033250;28;19921;-88
2023/04/29 02:46:01;;;;;;;;;;;;;;;18.38;nan;100993.25;5046624;28;19920;-88
2023/04/29 02:48:26;;;;;;;;;;;;;;;18.40;nan;100991.03;5033891;28;20424;-88
2023/04/29 02:50:51;;;;;;;;;;;;;;;18.40;nan;100993.75;5053895;28;19931;-88
2023/04/29 02:53:17;;;;;;;;;;;;;;;18.42;nan;100988.03;5057141;28;19916;-88
2023/04/29 02:55:42;;;;;;;;;;;;;;;18.41;nan;100989.94;5051566;28;19917;-89
2023/04/29 02:58:08;;;;;;;;;;;;;;;18.39;nan;100985.91;5052456;28;20343;-88
2023/04/29 03:00:33;;;;;;;;;;;;;;;18.39;nan;100994.06;5050145;28;19952;-87
2023/04/29 03:02:59;;;;;;;;;;;;;;;18.41;nan;100981.81;5046114;28;20370;-88
2023/04/29 03:05:24;;;;;;;;;;;;;;;18.46;nan;100985.53;5050259;28;20370;-89
2023/04/29 03:07:49;;;;;;;;;;;;;;;18.46;nan;100986.34;5047642;28;19917;-89
2023/04/29 03:10:16;;;;;;;;;;;;;;;18.45;nan;100984.72;5038141;28;19921;-89
2023/04/29 03:12:42;;;;;;;;;;;;;;;18.46;nan;100985.53;5052322;28;19951;-88
2023/04/29 03:15:09;;;;;;;;;;;;;;;18.45;nan;100981.22;5048097;28;20414;-88
2023/04/29 03:17:35;;;;;;;;;;;;;;;18.45;nan;100984.72;5049473;28;19917;-87
2023/04/29 03:20:00;;;;;;;;;;;;;;;18.43;nan;100979.59;5046978;28;19924;-88
2023/04/29 03:22:26;;;;;;;;;;;;;;;18.40;nan;100980.19;5049564;28;19917;-88
2023/04/29 03:24:51;;;;;;;;;;;;;;;18.37;nan;100977.28;5045711;28;20382;-88
2023/04/29 03:27:17;;;;;;;;;;;;;;;18.35;nan;100979.47;5046397;28;19952;-88
2023/04/29 03:29:42;;;;;;;;;;;;;;;18.34;nan;100978.66;5053800;28;19978;-87
2023/04/29 03:32:08;;;;;;;;;;;;;;;18.36;nan;100975.66;5049828;28;19912;-88
2023/04/29 03:34:33;;;;;;;;;;;;;;;18.39;nan;100970.44;5049532;28;19917;-88
2023/04/29 03:36:58;;;;;;;;;;;;;;;18.41;nan;100979.09;5049473;28;19971;-87
2023/04/29 03:39:24;;;;;;;;;;;;;;;18.44;nan;100974.97;5029652;28;20401;-88
2023/04/29 03:41:49;;;;;;;;;;;;;;;18.43;nan;100971.47;5047368;28;19917;-88
2023/04/29 03:44:15;;;;;;;;;;;;;;;18.42;nan;100975.28;5052609;28;20053;-88
2023/04/29 03:46:40;;;;;;;;;;;;;;;18.42;nan;100977.19;5053081;28;19921;-89
2023/04/29 03:49:05;;;;;;;;;;;;;;;18.41;nan;100978.28;5057167;28;19916;-89
2023/04/29 03:51:31;;;;;;;;;;;;;;;18.40;nan;100982.91;5051255;28;19917;-88
2023/04/29 03:53:56;;;;;;;;;;;;;;;18.38;nan;100973.44;5043692;28;19938;-89
2023/04/29 03:56:22;;;;;;;;;;;;;;;18.34;nan;100973.25;5035210;28;19932;-88
2023/04/29 03:58:47;;;;;;;;;;;;;;;18.34;nan;100969.72;5057752;28;19947;-88
2023/04/29 04:01:13;;;;;;;;;;;;;;;18.34;nan;100972.44;5051188;28;19972;-88
2023/04/29 04:03:38;;;;;;;;;;;;;;;18.35;nan;100974.84;5055535;28;20536;-88
2023/04/29 04:06:03;;;;;;;;;;;;;;;18.34;nan;100975.94;5050870;28;19920;-88
2023/04/29 04:08:29;;;;;;;;;;;;;;;18.33;nan;100977.06;5046876;28;19916;-89
2023/04/29 04:11:01;;;;;;;;;;;;;;;18.33;nan;100982.47;5048044;28;19921;-88
2023/04/29 04:13:26;;;;;;;;;;;;;;;18.30;nan;100977.63;5047952;28;19916;-88
2023/04/29 04:15:52;;;;;;;;;;;;;;;18.30;nan;100976.81;5030297;28;19917;-88
2023/04/29 04:18:17;;;;;;;;;;;;;;;18.32;nan;100983.59;5033384;28;19917;-88
2023/04/29 04:20:42;;;;;;;;;;;;;;;18.29;nan;100984.16;5051858;28;19924;-88
2023/04/29 04:23:08;;;;;;;;;;;;;;;18.26;nan;100987.44;5033095;28;19917;-87
2023/04/29 04:25:33;;;;;;;;;;;;;;;18.25;nan;100993.97;5046882;28;19921;-88
2023/04/29 04:27:58;;;;;;;;;;;;;;;18.24;nan;100986.94;5046823;28;19966;-88
2023/04/29 04:30:24;;;;;;;;;;;;;;;18.24;nan;100986.94;5026625;28;19921;-88
2023/04/29 04:32:49;;;;;;;;;;;;;;;18.23;nan;100990.75;5031194;28;19925;-88
2023/04/29 04:35:14;;;;;;;;;;;;;;;18.22;nan;100991.84;5027451;28;19925;-88
2023/04/29 04:37:40;;;;;;;;;;;;;;;18.21;nan;100987.53;5050889;28;19916;-89
2023/04/29 04:40:06;;;;;;;;;;;;;;;18.20;nan;100995.97;5053242;28;19916;-89
2023/04/29 04:42:31;;;;;;;;;;;;;;;18.17;nan;100986.50;5052219;28;19917;-89
2023/04/29 04:44:56;;;;;;;;;;;;;;;18.13;nan;100993.59;5050394;28;20224;-89
2023/04/29 04:47:22;;;;;;;;;;;;;;;18.07;nan;100990.16;5051650;28;19920;-89
2023/04/29 04:49:48;;;;;;;;;;;;;;;18.06;nan;100993.16;5046943;28;19924;-88
2023/04/29 04:52:14;;;;;;;;;;;;;;;18.04;nan;100990.75;5051452;28;19917;-89
2023/04/29 04:54:39;;;;;;;;;;;;;;;18.05;nan;100989.66;5055040;28;19939;-89
2023/04/29 04:57:05;;;;;;;;;;;;;;;18.07;nan;100992.88;5047685;28;19927;-89
2023/04/29 04:59:30;;;;;;;;;;;;;;;18.08;nan;100990.97;5054694;28;19917;-89
2023/04/29 05:01:56;;;;;;;;;;;;;;;18.09;nan;100989.84;5058141;28;19916;-90
2023/04/29 05:04:21;;;;;;;;;;;;;;;18.08;nan;100988.25;5048834;28;20335;-89
2023/04/29 05:06:46;;;;;;;;;;;;;;;18.07;nan;100995.56;5054074;28;19925;-89
2023/04/29 05:09:12;;;;;;;;;;;;;;;18.02;nan;100995.66;5047841;28;19948;-89
2023/04/29 05:11:37;;;;;;;;;;;;;;;17.97;nan;101003.06;5053466;28;19921;-88
2023/04/29 05:14:03;;;;;;;;;;;;;;;17.95;nan;101005.22;5049636;28;19928;-89
2023/04/29 05:16:28;;;;;;;;;;;;;;;17.94;nan;101003.63;5049792;28;20329;-89
2023/04/29 05:18:53;;;;;;;;;;;;;;;17.94;nan;101006.31;5046981;28;20480;-89
2023/04/29 05:21:27;;;;;;;;;;;;;;;17.94;nan;101011.75;5052672;28;20342;-89
2023/04/29 05:23:53;;;;;;;;;;;;;;;17.91;nan;101013.13;5050282;28;19916;-89
2023/04/29 05:26:18;;;;;;;;;;;;;;;17.88;nan;101013.72;5050010;28;19975;-89
2023/04/29 05:28:43;;;;;;;;;;;;;;;17.88;nan;101013.72;5047380;28;19913;-89
2023/04/29 05:31:09;;;;;;;;;;;;;;;17.86;nan;101020.53;5052612;28;19956;-88
2023/04/29 05:33:35;;;;;;;;;;;;;;;17.84;nan;101023.53;5052009;28;20437;-88
2023/04/29 05:36:01;;;;;;;;;;;;;;;17.85;nan;101029.75;5031988;28;19921;-89
2023/04/29 05:38:27;;;;;;;;;;;;;;;17.86;nan;101023.25;5049363;28;20358;-88
2023/04/29 05:40:56;;;;;;;;;;;;;;;17.81;nan;101019.50;5032018;28;19924;-88
2023/04/29 05:43:21;;;;;;;;;;;;;;;17.72;nan;101015.00;5031878;28;19921;-89
2023/04/29 05:45:47;;;;;;;;;;;;;;;17.67;nan;101018.56;5055726;28;19948;-88
2023/04/29 05:48:12;;;;;;;;;;;;;;;17.70;nan;101028.84;5054714;28;19912;-88
2023/04/29 05:50:37;;;;;;;;;;;;;;;17.71;nan;101022.31;5037940;28;19935;-89
2023/04/29 05:53:03;;;;;;;;;;;;;;;17.70;nan;101026.13;5043413;28;19919;-89
2023/04/29 05:55:29;;;;;;;;;;;;;;;17.69;nan;101019.09;5051324;28;19917;-88
2023/04/29 05:57:54;;;;;;;;;;;;;;;17.67;nan;101020.47;5033578;28;19913;-89
2023/04/29 06:00:20;;;;;;;;;;;;;;;17.64;nan;101029.16;5052080;28;19924;-89
2023/04/29 06:02:45;;;;;;;;;;;;;;;17.61;nan;101027.03;5049079;28;19912;-87
2023/04/29 06:05:11;;;;;;;;;;;;;;;17.60;nan;101023.53;5041601;28;19963;-87
2023/04/29 06:07:36;;;;;;;;;;;;;;;17.57;nan;101017.84;5041733;28;19939;-87
2023/04/29 06:10:01;;;;;;;;;;;;;;;17.52;nan;101022.22;5043966;28;19920;-87
2023/04/29 06:12:27;;;;;;;;;;;;;;;17.53;nan;101023.84;5048192;28;19934;-87
2023/04/29 06:14:52;;;;;;;;;;;;;;;17.57;nan;101026.78;5046265;28;20429;-87
2023/04/29 06:17:18;;;;;;;;;;;;;;;17.58;nan;101024.88;5053051;28;19923;-85
2023/04/29 06:19:43;;;;;;;;;;;;;;;17.56;nan;101027.06;5052317;28;19982;-87
2023/04/29 06:22:08;;;;;;;;;;;;;;;17.57;nan;101029.50;5046196;28;20051;-86
2023/04/29 06:24:34;;;;;;;;;;;;;;;17.57;nan;101029.50;5032196;28;19924;-86
2023/04/29 06:26:59;;;;;;;;;;;;;;;17.59;nan;101031.91;5048724;28;19925;-86
2023/04/29 06:29:24;;;;;;;;;;;;;;;17.61;nan;101035.16;5044821;28;19936;-85
2023/04/29 06:31:50;;;;;;;;;;;;;;;17.61;nan;101035.97;5045742;28;19917;-86
2023/04/29 06:34:15;;;;;;;;;;;;;;;17.63;nan;101032.97;5047422;28;19924;-86
2023/04/29 06:36:40;;;;;;;;;;;;;;;17.63;nan;101039.19;5045218;28;19932;-87
2023/04/29 06:39:06;;;;;;;;;;;;;;;17.59;nan;101035.44;5044275;28;19917;-87
2023/04/29 06:41:33;;;;;;;;;;;;;;;17.58;nan;101047.38;5041968;28;20002;-86
2023/04/29 06:43:58;;;;;;;;;;;;;;;17.57;nan;101043.03;5048066;28;19931;-86
2023/04/29 06:46:24;;;;;;;;;;;;;;;17.60;nan;101047.09;5041342;28;19921;-86
2023/04/29 06:48:49;;;;;;;;;;;;;;;17.59;nan;101046.28;5052300;28;19924;-86
2023/04/29 06:51:15;;;;;;;;;;;;;;;17.59;nan;101048.16;5049846;28;20449;-87
2023/04/29 06:53:40;;;;;;;;;;;;;;;17.61;nan;101054.94;5046900;28;20738;-86
2023/04/29 06:56:06;;;;;;;;;;;;;;;17.60;nan;101056.03;5048152;28;20408;-88
2023/04/29 06:58:31;;;;;;;;;;;;;;;17.61;nan;101056.84;5050668;28;19924;-87
2023/04/29 07:00:56;;;;;;;;;;;;;;;17.62;nan;101069.28;5045535;28;19917;-87
2023/04/29 07:03:22;;;;;;;;;;;;;;;17.63;nan;101060.88;5052210;28;19912;-86
2023/04/29 07:05:47;;;;;;;;;;;;;;;17.67;nan;101070.03;5043304;28;20581;-86
2023/04/29 07:08:13;;;;;;;;;;;;;;;17.68;nan;101073.59;5022278;28;20302;-87
2023/04/29 07:10:38;;;;;;;;;;;;;;;17.70;nan;101076.81;5051518;28;20017;-86
2023/04/29 07:13:04;;;;;;;;;;;;;;;17.70;nan;101080.34;5049098;28;20382;-87
2023/04/29 07:15:32;;;;;;;;;;;;;;;17.71;nan;101075.72;5048431;28;20008;-87
2023/04/29 07:17:58;;;;;;;;;;;;;;;17.69;nan;101077.91;5050256;28;19924;-87
2023/04/29 07:20:23;;;;;;;;;;;;;;;17.70;nan;101077.63;5049379;28;19917;-87
2023/04/29 07:22:49;;;;;;;;;;;;;;;17.72;nan;101083.56;4973788;28;2006412;-87
2023/04/29 07:25:14;;;;;;;;;;;;;;;17.74;nan;101081.38;5026870;28;20321;-87
2023/04/29 07:27:39;;;;;;;;;;;;;;;17.76;nan;101086.50;5037749;28;19962;-87
2023/04/29 07:30:12;;;;;;;;;;;;;;;17.74;nan;101089.50;5037445;28;19921;-91
2023/04/29 07:32:37;;;;;;;;;;;;;;;17.74;nan;101092.19;5053399;28;20493;-88
2023/04/29 07:35:03;;;;;;;;;;;;;;;17.77;nan;101101.66;5043709;28;19943;-87
2023/04/29 07:37:28;;;;;;;;;;;;;;;17.79;nan;101097.59;5023871;28;20373;-88
2023/04/29 07:39:53;;;;;;;;;;;;;;;17.78;nan;101098.69;5050403;28;19923;-87
2023/04/29 07:42:19;;;;;;;;;;;;;;;17.79;nan;101097.59;5044061;28;19970;-87
2023/04/29 07:44:44;;;;;;;;;;;;;;;17.80;nan;101098.41;5046765;28;20011;-86
2023/04/29 07:47:10;;;;;;;;;;;;;;;17.85;nan;101105.66;5046116;28;19944;-86
2023/04/29 07:49:36;;;;;;;;;;;;;;;17.89;nan;101114.81;5045072;28;19917;-87
2023/04/29 07:52:02;;;;;;;;;;;;;;;17.91;nan;101109.91;5049900;28;19917;-87
2023/04/29 07:54:28;;;;;;;;;;;;;;;17.95;nan;101110.94;5045097;28;20006;-87
2023/04/29 07:56:53;;;;;;;;;;;;;;;17.99;nan;101106.59;5043070;28;19951;-86
2023/04/29 07:59:18;;;;;;;;;;;;;;;18.02;nan;101106.00;5043261;28;19951;-86
2023/04/29 08:01:44;;;;;;;;;;;;;;;18.07;nan;101114.06;5052556;28;19970;-86
2023/04/29 08:04:09;;;;;;;;;;;;;;;18.13;nan;101121.03;5056801;28;19967;-86
2023/04/29 08:06:34;;;;;;;;;;;;;;;18.13;nan;101118.34;5038269;28;19927;-87
2023/04/29 08:09:00;;;;;;;;;;;;;;;18.16;nan;101116.97;5059888;28;19971;-87
2023/04/29 08:11:25;;;;;;;;;;;;;;;18.17;nan;101118.59;5060140;22;19925;-86
2023/04/29 08:13:51;;;;;;;;;;;;;;;18.19;nan;101125.31;5034590;28;19921;-86
2023/04/29 08:16:17;;;;;;;;;;;;;;;18.22;nan;101129.38;5035577;28;19921;-86
2023/04/29 08:18:42;;;;;;;;;;;;;;;18.25;nan;101126.88;5039953;28;20381;-86
2023/04/29 08:21:10;;;;;;;;;;;;;;;18.28;nan;101133.63;5034424;28;19959;-86
2023/04/29 08:23:35;;;;;;;;;;;;;;;18.30;nan;101131.41;5037210;28;19944;-86
2023/04/29 08:26:02;;;;;;;;;;;;;;;18.33;nan;101133.56;5037437;28;19921;-86
2023/04/29 08:28:27;;;;;;;;;;;;;;;18.37;nan;101131.91;5040808;28;19991;-86
2023/04/29 08:30:53;;;;;;;;;;;;;;;18.41;nan;101136.44;5037702;28;20422;-86
2023/04/29 08:33:18;;;;;;;;;;;;;;;18.44;nan;101140.47;5037783;28;19920;-86
2023/04/29 08:35:43;;;;;;;;;;;;;;;18.48;nan;101146.13;5037745;28;19921;-87
2023/04/29 08:38:09;;;;;;;;;;;;;;;18.53;nan;101138.75;5019347;28;20004;-86
2023/04/29 08:40:45;;;;;;;;;;;;;;;18.57;nan;101149.81;5040112;28;19924;-86
2023/04/29 08:43:12;;;;;;;;;;;;;;;18.60;nan;101150.03;5042741;28;20496;-86
2023/04/29 08:45:38;;;;;;;;;;;;;;;18.63;nan;101149.47;5019106;28;19974;-86
2023/04/29 08:48:05;;;;;;;;;;;;;;;18.66;nan;101148.88;5037690;28;20070;-86
2023/04/29 08:50:31;;;;;;;;;;;;;;;18.67;nan;101155.94;5035139;28;19924;-86
2023/04/29 08:52:57;;;;;;;;;;;;;;;18.71;nan;101158.88;5037242;28;20413;-86
2023/04/29 08:55:23;;;;;;;;;;;;;;;18.78;nan;101163.94;5036136;28;19921;-86
2023/04/29 08:57:49;;;;;;;;;;;;;;;18.79;nan;101171.78;5038352;28;20362;-86
2023/04/29 09:00:14;;;;;;;;;;;;;;;18.80;nan;101175.31;5035600;28;20382;-86
2023/04/29 09:02:42;;;;;;;;;;;;;;;18.78;nan;101178.31;5035505;28;20010;-86
2023/04/29 09:05:10;;;;;;;;;;;;;;;18.78;nan;101182.94;5029997;28;19916;-86
2023/04/29 09:07:35;;;;;;;;;;;;;;;18.75;nan;101192.47;5035760;28;19960;-86
2023/04/29 09:10:03;;;;;;;;;;;;;;;18.74;nan;101196.28;5036562;28;20017;-86
2023/04/29 09:12:29;;;;;;;;;;;;;;;18.75;nan;101199.81;5034741;28;19916;-85
2023/04/29 09:14:55;;;;;;;;;;;;;;;18.75;nan;101195.19;5039801;28;20047;-86
2023/04/29 09:17:36;;;;;;;;;;;;;;;18.75;nan;101199.81;5038355;28;19924;-85
2023/04/29 09:20:22;;;;;;;;;;;;;;;18.74;nan;101198.19;5040169;28;19943;-86
2023/04/29 09:22:47;;;;;;;;;;;;;;;18.79;nan;101198.94;5038887;28;20597;-86
2023/04/29 09:25:13;;;;;;;;;;;;;;;18.88;nan;101201.81;5037290;28;20005;-86
2023/04/29 09:27:38;;;;;;;;;;;;;;;18.90;nan;101196.91;5038757;28;19917;-86
2023/04/29 09:30:04;;;;;;;;;;;;;;;18.91;nan;101209.38;5038930;28;19932;-86
2023/04/29 09:32:29;;;;;;;;;;;;;;;18.92;nan;101213.69;5037844;28;20294;-86
2023/04/29 09:34:55;;;;;;;;;;;;;;;18.94;nan;101212.31;5037283;28;19924;-86
2023/04/29 09:37:26;;;;;;;;;;;;;;;18.98;nan;101216.03;5038856;28;20004;-86
2023/04/29 09:39:52;;;;;;;;;;;;;;;19.05;nan;101212.19;5036031;28;20286;-86
2023/04/29 09:42:17;;;;;;;;;;;;;;;19.11;nan;101213.72;5037461;28;19917;-86
2023/04/29 09:44:44;;;;;;;;;;;;;;;19.20;nan;101217.38;5037115;28;19919;-86
2023/04/29 09:47:09;;;;;;;;;;;;;;;19.33;nan;101227.50;5036768;28;19928;-86
2023/04/29 09:49:40;;;;;;;;;;;;;;;19.44;nan;101223.53;5038114;28;20078;-86
2023/04/29 09:52:07;;;;;;;;;;;;;;;19.46;nan;101232.19;5038136;28;20408;-85
2023/04/29 09:54:35;;;;;;;;;;;;;;;19.46;nan;101237.63;5040036;28;19921;-86
2023/04/29 09:57:01;;;;;;;;;;;;;;;19.45;nan;101241.44;5036774;28;20366;-86
2023/04/29 09:59:27;;;;;;;;;;;;;;;19.43;nan;101245.56;5037387;28;19925;-86
2023/04/29 10:01:56;;;;;;;;;;;;;;;19.40;nan;101246.97;5037320;28;19940;-86
2023/04/29 10:04:23;;;;;;;;;;;;;;;19.30;nan;101242.47;5040317;28;20427;-85
2023/04/29 10:06:50;;;;;;;;;;;;;;;19.30;nan;101252.53;5037325;28;19921;-86
2023/04/29 10:09:16;;;;;;;;;;;;;;;19.28;nan;101262.91;5038108;28;20416;-86
2023/04/29 10:11:42;;;;;;;;;;;;;;;19.30;nan;101260.69;5039619;28;19917;-86
2023/04/29 10:14:11;;;;;;;;;;;;;;;19.19;nan;101261.94;5039427;28;19924;-85
2023/04/29 10:16:40;;;;;;;;;;;;;;;19.16;nan;101260.63;5038333;28;19943;-86
2023/04/29 10:19:10;;;;;;;;;;;;;;;19.14;nan;101264.72;5039846;28;20379;-86
2023/04/29 10:21:37;;;;;;;;;;;;;;;19.05;nan;101266.50;5035955;28;20438;-86
2023/04/29 10:24:02;;;;;;;;;;;;;;;19.08;nan;101268.63;5035731;28;19921;-85
2023/04/29 10:26:28;;;;;;;;;;;;;;;19.01;nan;101264.34;5028795;28;20358;-86
2023/04/29 10:28:58;;;;;;;;;;;;;;;19.05;nan;101274.63;5038087;28;19924;-85
2023/04/29 10:31:27;;;;;;;;;;;;;;;19.12;nan;101275.06;5037678;28;19917;-86
2023/04/29 10:33:56;;;;;;;;;;;;;;;19.20;nan;101274.41;5035343;28;19927;-86
2023/04/29 10:36:22;;;;;;;;;;;;;;;19.22;nan;101269.53;5034942;28;20180;-86
2023/04/29 10:38:51;;;;;;;;;;;;;;;19.08;nan;101271.34;5036843;28;19970;-85
2023/04/29 10:41:23;;;;;;;;;;;;;;;19.10;nan;101277.28;5034800;28;20339;-86
2023/04/29 10:43:49;;;;;;;;;;;;;;;19.21;nan;101270.59;5036546;28;19917;-86
2023/04/29 10:46:21;;;;;;;;;;;;;;;19.22;nan;101274.94;5037599;28;20029;-85
2023/04/29 10:48:48;;;;;;;;;;;;;;;19.22;nan;101278.47;5033754;28;20301;-85
2023/04/29 10:51:27;;;;;;;;;;;;;;;19.31;nan;101278.63;5035353;28;20444;-86
2023/04/29 10:53:59;;;;;;;;;;;;;;;19.48;nan;101273.47;5037313;28;19994;-86
2023/04/29 10:56:45;;;;;;;;;;;;;;;19.66;nan;101281.94;5037090;28;19921;-86
2023/04/29 10:59:12;;;;;;;;;;;;;;;19.83;nan;101282.19;5034959;28;19917;-85
2023/04/29 11:01:44;;;;;;;;;;;;;;;19.96;nan;101283.34;5034331;28;19921;-85
2023/04/29 11:04:10;;;;;;;;;;;;;;;20.00;nan;101287.09;5036044;28;19917;-85
2023/04/29 11:06:35;;;;;;;;;;;;;;;20.01;nan;101291.44;5034672;28;20040;-85
2023/04/29 11:09:07;;;;;;;;;;;;;;;20.03;nan;101295.47;5036393;28;20364;-85
2023/04/29 11:11:45;;;;;;;;;;;;;;;20.03;nan;101294.66;5032112;28;19917;-85
2023/04/29 11:14:12;;;;;;;;;;;;;;;19.91;nan;101297.81;5037766;28;20374;-86
2023/04/29 11:16:45;;;;;;;;;;;;;;;19.86;nan;101296.00;5033463;28;19917;-85
2023/04/29 11:19:13;;;;;;;;;;;;;;;19.90;nan;101307.09;5033954;28;20108;-86
2023/04/29 11:21:39;;;;;;;;;;;;;;;20.03;nan;101305.53;5038613;28;20015;-85
2023/04/29 11:24:05;;;;;;;;;;;;;;;20.04;nan;101301.69;5041274;28;20035;-85
2023/04/29 11:26:31;;;;;;;;;;;;;;;19.90;nan;101313.34;5044934;28;19927;-85
2023/04/29 11:28:59;;;;;;;;;;;;;;;19.88;nan;101314.75;5047419;28;19921;-85
2023/04/29 11:31:33;;;;;;;;;;;;;;;19.93;nan;101320.13;5049221;28;19928;-85
2023/04/29 11:33:59;;;;;;;;;;;;;;;20.04;nan;101312.59;5030692;28;19928;-85
2023/04/29 11:36:26;;;;;;;;;;;;;;;20.20;nan;101322.91;5018298;28;20007;-85
2023/04/29 11:38:51;;;;;;;;;;;;;;;20.39;nan;101324.75;5044913;28;19924;-85
2023/04/29 11:41:17;;;;;;;;;;;;;;;20.59;nan;101318.97;5042983;28;19921;-85
2023/04/29 11:43:45;;;;;;;;;;;;;;;20.70;nan;101327.75;5045712;28;19921;-85
2023/04/29 11:46:10;;;;;;;;;;;;;;;20.77;nan;101330.88;5042258;28;19928;-85
2023/04/29 11:48:36;;;;;;;;;;;;;;;20.84;nan;101330.50;5047769;28;19917;-85
2023/04/29 11:51:02;;;;;;;;;;;;;;;20.92;nan;101333.31;5047567;28;19917;-85
2023/04/29 11:53:27;;;;;;;;;;;;;;;20.78;nan;101332.50;5041367;28;19923;-85
2023/04/29 11:55:53;;;;;;;;;;;;;;;20.64;nan;101334.38;5041737;28;19924;-85
2023/04/29 11:58:21;;;;;;;;;;;;;;;20.75;nan;101338.53;5040771;28;19978;-85
2023/04/29 12:00:47;;;;;;;;;;;;;;;20.85;nan;101349.25;5045149;28;19927;-85
2023/04/29 12:03:14;;;;;;;;;;;;;;;20.95;nan;101350.97;5041988;28;19999;-85
2023/04/29 12:05:45;;;;;;;;;;;;;;;21.01;nan;101357.94;5050434;28;20332;-85
2023/04/29 12:08:10;;;;;;;;;;;;;;;21.12;nan;101351.16;5050528;28;19917;-85
2023/04/29 12:10:38;;;;;;;;;;;;;;;21.17;nan;101358.41;5052485;28;20350;-85
2023/04/29 12:13:03;;;;;;;;;;;;;;;21.22;nan;101367.31;5051458;28;19973;-85
2023/04/29 12:15:30;;;;;;;;;;;;;;;21.25;nan;101364.00;5042487;28;20422;-85
2023/04/29 12:17:55;;;;;;;;;;;;;;;21.28;nan;101365.31;5043453;28;20781;-85
2023/04/29 12:20:21;;;;;;;;;;;;;;;21.29;nan;101373.16;5051960;28;20016;-85
2023/04/29 12:22:46;;;;;;;;;;;;;;;21.28;nan;101382.47;5050124;28;20388;-85
2023/04/29 12:25:11;;;;;;;;;;;;;;;21.24;nan;101386.91;5045554;28;19921;-85
2023/04/29 12:27:40;;;;;;;;;;;;;;;21.25;nan;101393.97;5046721;28;19921;-85
2023/04/29 12:30:08;;;;;;;;;;;;;;;21.26;nan;101392.84;5048426;28;20290;-85
2023/04/29 12:32:33;;;;;;;;;;;;;;;21.22;nan;101394.56;5048655;28;19940;-85
2023/04/29 12:34:59;;;;;;;;;;;;;;;21.06;nan;101394.06;5032488;28;19999;-85
2023/04/29 12:37:25;;;;;;;;;;;;;;;20.97;nan;101397.75;5050928;28;19928;-85
2023/04/29 12:39:51;;;;;;;;;;;;;;;20.98;nan;101402.09;5047463;28;19917;-85
2023/04/29 12:42:17;;;;;;;;;;;;;;;21.05;nan;101413.44;5047330;28;19924;-84
2023/04/29 12:44:46;;;;;;;;;;;;;;;21.04;nan;101414.53;5044128;28;20375;-85
2023/04/29 12:47:12;;;;;;;;;;;;;;;21.04;nan;101418.06;5038965;28;19921;-85
2023/04/29 12:49:40;;;;;;;;;;;;;;;21.09;nan;101414.44;5047243;28;20027;-85
2023/04/29 12:52:09;;;;;;;;;;;;;;;21.11;nan;101423.09;5044824;28;19917;-85
2023/04/29 12:54:35;;;;;;;;;;;;;;;21.11;nan;101417.66;5025361;28;19924;-85